Time;durP1;ratioP1;P1;durP2;ratioP2;P2;SDS_P1;SDS_P2;PMS_P1;PMS_P2;Temp;Humidity;BMP_temperature;BMP_pressure;BME280_temperature;BME280_humidity;BME280_pressure;Samples;Min_cycle;Max_cycle;Signal;HPM_P1;HPM_P2
2024/04/09 00:00:21;;;;;;;15.25;3.40;;;;;;;16.07;87.16;92099.69;2106236;28;20602;-86
2024/04/09 00:01:22;;;;;;;14.77;3.00;;;;;;;16.02;89.12;92101.13;2098677;27;20413;-84
2024/04/09 00:02:24;;;;;;;14.18;4.00;;;;;;;16.05;87.65;92096.72;2114777;28;20106;-84
2024/04/09 00:03:25;;;;;;;14.15;3.55;;;;;;;16.03;89.17;92105.28;2115325;28;20020;-86
2024/04/09 00:04:27;;;;;;;16.73;3.63;;;;;;;15.96;91.94;92107.66;2113682;28;20080;-84
2024/04/09 00:05:31;;;;;;;17.23;4.22;;;;;;;16.02;89.69;92108.44;2103619;28;20103;-86
2024/04/09 00:06:35;;;;;;;16.33;3.50;;;;;;;15.99;88.87;92107.44;2108503;27;20370;-83
2024/04/09 00:07:40;;;;;;;14.38;3.42;;;;;;;15.79;90.72;92094.72;2116781;27;20065;-86
2024/04/09 00:08:44;;;;;;;17.40;3.83;;;;;;;15.80;91.85;92088.16;2109302;28;20396;-83
2024/04/09 00:09:45;;;;;;;20.92;3.60;;;;;;;15.66;93.89;92097.03;2103626;28;20381;-83
2024/04/09 00:10:47;;;;;;;14.30;3.67;;;;;;;15.80;92.44;92100.84;2106615;28;20051;-82
2024/04/09 00:11:49;;;;;;;19.35;4.50;;;;;;;15.80;92.55;92093.53;2115043;28;20056;-86
2024/04/09 00:12:52;;;;;;;19.25;4.05;;;;;;;15.88;92.24;92103.88;2119053;27;20031;-85
2024/04/09 00:13:58;;;;;;;16.25;3.72;;;;;;;16.05;90.62;92102.09;2108780;28;20030;-82
2024/04/09 00:14:59;;;;;;;17.45;3.85;;;;;;;16.02;89.95;92093.03;2120120;27;20018;-86
2024/04/09 00:16:00;;;;;;;14.05;3.50;;;;;;;16.00;90.06;92090.06;2109390;28;20020;-83
2024/04/09 00:17:01;;;;;;;17.10;3.53;;;;;;;15.86;92.23;92098.97;2106587;28;20028;-82
2024/04/09 00:18:12;;;;;;;13.75;3.83;;;;;;;15.59;96.01;92095.47;2118458;27;20019;-84
2024/04/09 00:19:17;;;;;;;15.77;4.05;;;;;;;15.68;95.10;92083.84;2120330;27;20028;-85
2024/04/09 00:20:18;;;;;;;17.95;4.65;;;;;;;15.80;94.19;92084.69;2118944;27;20023;-81
2024/04/09 00:21:20;;;;;;;16.23;3.60;;;;;;;15.76;95.26;92089.53;2106442;28;20027;-83
2024/04/09 00:22:27;;;;;;;15.65;3.53;;;;;;;15.82;94.65;92099.19;2099842;27;20538;-85
2024/04/09 00:23:28;;;;;;;13.90;2.97;;;;;;;15.89;93.75;92089.19;2123395;27;20400;-83
2024/04/09 00:24:31;;;;;;;15.20;3.50;;;;;;;16.10;91.66;92094.06;2122373;27;20046;-84
2024/04/09 00:25:32;;;;;;;17.02;3.92;;;;;;;15.85;91.98;92092.13;2114631;28;20065;-82
2024/04/09 00:26:35;;;;;;;15.73;4.05;;;;;;;15.90;91.81;92083.34;2120837;27;20019;-85
2024/04/09 00:27:41;;;;;;;22.55;3.83;;;;;;;15.77;95.19;92083.69;2122928;27;20531;-83
2024/04/09 00:28:42;;;;;;;10.10;3.10;;;;;;;15.95;93.69;92092.69;2122870;27;20103;-81
2024/04/09 00:29:44;;;;;;;17.52;4.03;;;;;;;15.71;95.96;92084.84;2123112;27;20060;-85
2024/04/09 00:30:46;;;;;;;13.55;3.75;;;;;;;15.77;93.64;92088.34;2106894;28;20024;-85
2024/04/09 00:31:47;;;;;;;13.00;3.15;;;;;;;15.76;94.34;92084.16;2118975;27;20474;-84
2024/04/09 00:32:52;;;;;;;12.57;3.78;;;;;;;15.67;94.46;92084.31;2119673;27;20027;-84
2024/04/09 00:33:55;;;;;;;15.18;4.22;;;;;;;15.76;93.94;92082.22;2106306;28;20068;-83
2024/04/09 00:34:56;;;;;;;10.05;3.60;;;;;;;15.77;95.02;92081.00;2106165;28;20043;-83
2024/04/09 00:35:57;;;;;;;16.83;3.63;;;;;;;15.52;97.73;92081.66;2114494;28;20364;-84
2024/04/09 00:36:59;;;;;;;15.95;3.97;;;;;;;15.56;95.88;92080.25;2120093;27;20127;-85
2024/04/09 00:38:06;;;;;;;14.15;3.45;;;;;;;15.50;98.66;92084.84;2123078;27;20398;-84
2024/04/09 00:39:19;;;;;;;15.85;3.53;;;;;;;15.54;97.91;92088.06;2123436;27;20374;-85
2024/04/09 00:40:21;;;;;;;13.07;3.50;;;;;;;15.43;99.46;92106.78;2114743;28;20099;-82
2024/04/09 00:41:22;;;;;;;17.48;3.25;;;;;;;15.41;98.48;92103.06;2114858;28;20024;-84
2024/04/09 00:42:24;;;;;;;14.80;3.70;;;;;;;15.47;99.39;92101.19;2114738;28;20024;-86
2024/04/09 00:43:25;;;;;;;17.38;3.88;;;;;;;15.48;98.24;92097.28;2114650;27;20484;-82
2024/04/09 00:44:32;;;;;;;11.38;3.25;;;;;;;15.47;99.06;92091.16;2110569;27;20055;-84
2024/04/09 00:45:33;;;;;;;13.35;3.35;;;;;;;15.46;98.91;92088.94;2111032;27;20114;-86
2024/04/09 00:46:34;;;;;;;12.15;3.63;;;;;;;15.46;100.00;92089.69;2118639;27;20527;-85
2024/04/09 00:47:35;;;;;;;9.35;2.90;;;;;;;15.51;99.60;92083.63;2119482;27;20042;-85
2024/04/09 00:48:37;;;;;;;14.88;3.30;;;;;;;15.53;99.34;92088.53;2121350;27;20031;-85
2024/04/09 00:49:38;;;;;;;18.27;3.25;;;;;;;15.56;98.53;92101.06;2112256;28;20092;-84
2024/04/09 00:50:45;;;;;;;14.15;3.58;;;;;;;15.62;98.93;92091.81;2110117;28;20030;-88
2024/04/09 00:51:49;;;;;;;14.68;3.97;;;;;;;15.68;97.22;92094.63;2118813;27;20031;-86
2024/04/09 00:52:54;;;;;;;21.33;3.80;;;;;;;15.59;96.95;92092.78;2115335;28;20393;-85
2024/04/09 00:53:55;;;;;;;10.80;2.80;;;;;;;15.61;98.38;92084.97;2115281;27;20357;-81
2024/04/09 00:54:58;;;;;;;16.05;3.60;;;;;;;15.66;97.49;92080.88;2109322;28;20069;-84
2024/04/09 00:55:59;;;;;;;16.67;3.65;;;;;;;15.56;100.00;92098.38;2114645;28;20024;-82
2024/04/09 00:57:01;;;;;;;12.50;2.85;;;;;;;15.38;100.00;92096.69;2114558;28;20115;-83
2024/04/09 00:58:03;;;;;;;13.60;3.60;;;;;;;15.49;99.59;92101.47;2112097;28;20379;-87
2024/04/09 00:59:04;;;;;;;15.63;3.40;;;;;;;15.76;96.82;92101.09;2114747;28;20059;-88
2024/04/09 01:00:07;;;;;;;13.75;3.42;;;;;;;15.71;97.84;92103.69;2114631;28;20512;-84
2024/04/09 01:01:13;;;;;;;16.25;2.95;;;;;;;15.65;96.93;92105.59;2103411;28;20020;-84
2024/04/09 01:02:14;;;;;;;13.00;3.33;;;;;;;15.58;99.28;92112.09;2090908;28;20104;-83
2024/04/09 01:03:15;;;;;;;13.85;3.30;;;;;;;15.74;98.36;92111.59;2105967;28;20027;-84
2024/04/09 01:04:16;;;;;;;9.95;3.20;;;;;;;15.78;98.49;92108.69;2104939;28;20028;-86
2024/04/09 01:05:17;;;;;;;16.10;3.10;;;;;;;15.92;96.58;92110.53;2113446;28;20032;-82
2024/04/09 01:06:19;;;;;;;15.40;3.63;;;;;;;16.04;95.35;92122.94;2114546;27;20122;-81
2024/04/09 01:07:20;;;;;;;22.48;3.65;;;;;;;15.93;93.60;92138.25;2112098;28;20026;-86
2024/04/09 01:08:21;;;;;;;16.77;4.88;;;;;;;15.91;92.28;92133.34;2097301;28;20051;-84
2024/04/09 01:09:22;;;;;;;19.15;3.20;;;;;;;15.90;88.79;92126.47;2099790;28;20031;-87
2024/04/09 01:10:23;;;;;;;19.95;3.55;;;;;;;15.74;88.78;92114.28;2097124;28;20028;-84
2024/04/09 01:11:26;;;;;;;20.52;3.83;;;;;;;15.66;90.17;92110.50;2097495;28;20029;-83
2024/04/09 01:12:27;;;;;;;13.98;3.30;;;;;;;15.59;89.32;92125.09;2113899;28;20097;-85
2024/04/09 01:13:28;;;;;;;14.85;2.90;;;;;;;15.73;86.55;92128.97;2107538;27;20032;-87
2024/04/09 01:14:29;;;;;;;15.43;2.85;;;;;;;15.74;86.94;92125.06;2118247;27;20069;-83
2024/04/09 01:15:30;;;;;;;17.85;3.33;;;;;;;15.63;86.91;92124.91;2102175;28;20078;-86
2024/04/09 01:16:33;;;;;;;15.18;3.17;;;;;;;15.80;87.52;92128.56;2103120;28;20032;-83
2024/04/09 01:17:34;;;;;;;13.38;3.13;;;;;;;15.83;87.84;92126.88;2109069;27;20020;-86
2024/04/09 01:18:35;;;;;;;15.05;3.33;;;;;;;15.73;84.77;92125.53;2117047;27;20023;-88
2024/04/09 01:19:36;;;;;;;12.25;3.53;;;;;;;15.73;83.13;92128.22;2111605;28;20043;-83
2024/04/09 01:20:37;;;;;;;11.15;3.42;;;;;;;15.75;87.43;92128.47;2102450;28;20031;-86
2024/04/09 01:21:38;;;;;;;14.85;3.38;;;;;;;15.34;88.89;92131.88;2105035;28;20493;-85
2024/04/09 01:22:40;;;;;;;9.88;3.22;;;;;;;15.17;90.32;92140.94;2110481;27;20023;-83
2024/04/09 01:23:41;;;;;;;18.17;3.22;;;;;;;15.11;92.84;92138.19;2116397;27;20063;-81
2024/04/09 01:24:42;;;;;;;15.57;2.95;;;;;;;15.06;95.54;92136.16;2118083;27;20031;-85
2024/04/09 01:25:43;;;;;;;18.98;3.42;;;;;;;14.94;96.56;92142.59;2116590;27;20031;-85
2024/04/09 01:26:51;;;;;;;12.38;3.20;;;;;;;15.01;94.68;92142.94;2105919;28;20032;-83
2024/04/09 01:27:51;;;;;;;17.42;3.30;;;;;;;14.93;94.96;92146.50;2103710;27;20399;-82
2024/04/09 01:28:54;;;;;;;13.55;3.05;;;;;;;14.81;96.09;92148.25;2116252;27;20053;-82
2024/04/09 01:29:55;;;;;;;13.10;2.60;;;;;;;14.84;95.24;92144.66;2117168;27;20467;-81
2024/04/09 01:30:57;;;;;;;12.75;3.45;;;;;;;14.85;95.02;92151.50;2110429;28;20396;-82
2024/04/09 01:31:58;;;;;;;15.35;3.70;;;;;;;14.96;94.46;92148.97;2108792;28;20032;-82
2024/04/09 01:32:59;;;;;;;18.38;3.33;;;;;;;14.92;94.09;92155.75;2105814;28;20034;-86
2024/04/09 01:34:00;;;;;;;14.32;3.15;;;;;;;14.97;92.39;92150.47;2104011;28;20028;-83
2024/04/09 01:35:06;;;;;;;14.65;4.15;;;;;;;14.90;93.71;92153.53;2114520;27;20023;-83
2024/04/09 01:36:10;;;;;;;17.58;3.47;;;;;;;14.97;94.76;92153.16;2118814;27;20383;-86
2024/04/09 01:37:12;;;;;;;13.52;3.75;;;;;;;15.02;95.83;92149.81;2108832;27;20412;-84
2024/04/09 01:38:13;;;;;;;12.85;3.55;;;;;;;15.16;93.61;92150.97;2107072;28;20028;-84
2024/04/09 01:39:14;;;;;;;12.40;3.30;;;;;;;15.12;96.01;92150.44;2121329;27;20110;-85
2024/04/09 01:40:16;;;;;;;12.45;2.40;;;;;;;15.21;94.47;92154.97;2114529;28;20049;-84
2024/04/09 01:41:17;;;;;;;15.32;3.20;;;;;;;15.08;95.18;92155.25;2109542;28;20028;-84
2024/04/09 01:42:18;;;;;;;19.98;3.60;;;;;;;14.92;97.26;92159.19;2113958;27;20087;-84
2024/04/09 01:43:19;;;;;;;12.95;3.13;;;;;;;14.84;98.56;92158.09;2117621;27;20115;-83
2024/04/09 01:44:20;;;;;;;13.77;3.42;;;;;;;14.79;100.00;92164.09;2122123;27;20023;-86
2024/04/09 01:45:21;;;;;;;16.33;3.10;;;;;;;14.88;100.00;92169.38;2117253;27;20034;-84
2024/04/09 01:46:23;;;;;;;18.13;4.85;;;;;;;14.92;97.19;92167.25;2122243;27;20045;-82
2024/04/09 01:47:24;;;;;;;12.88;3.35;;;;;;;14.84;98.32;92169.59;2113353;27;20030;-85
2024/04/09 01:48:25;;;;;;;17.15;3.28;;;;;;;14.90;97.73;92166.25;2118256;27;20023;-84
2024/04/09 01:49:26;;;;;;;15.23;3.30;;;;;;;14.84;97.85;92158.84;2112420;28;20487;-84
2024/04/09 01:50:27;;;;;;;11.93;2.55;;;;;;;14.91;97.17;92157.69;2102899;28;20521;-86
2024/04/09 01:51:28;;;;;;;19.30;4.28;;;;;;;14.84;97.67;92150.75;2109289;28;20499;-85
2024/04/09 01:52:32;;;;;;;11.25;3.58;;;;;;;14.80;100.00;92154.84;2106291;27;20035;-85
2024/04/09 01:53:33;;;;;;;12.75;3.38;;;;;;;14.73;100.00;92152.53;2107437;28;20445;-87
2024/04/09 01:54:34;;;;;;;17.38;2.90;;;;;;;14.69;100.00;92146.59;2108962;28;20020;-85
2024/04/09 01:55:35;;;;;;;16.02;3.38;;;;;;;14.59;100.00;92144.00;2109445;28;20028;-86
2024/04/09 01:56:36;;;;;;;16.42;3.75;;;;;;;14.63;100.00;92143.81;2111334;28;20086;-85
2024/04/09 01:57:41;;;;;;;13.70;2.80;;;;;;;14.66;99.97;92139.44;2108065;28;20054;-84
2024/04/09 01:58:43;;;;;;;10.93;3.53;;;;;;;14.57;100.00;92133.00;2104792;28;20201;-82
2024/04/09 01:59:45;;;;;;;19.60;3.25;;;;;;;14.66;100.00;92139.44;2102625;28;20319;-83
2024/04/09 02:00:46;;;;;;;14.75;2.97;;;;;;;14.72;100.00;92151.78;2100610;28;20416;-84
2024/04/09 02:01:47;;;;;;;13.88;3.03;;;;;;;14.71;100.00;92152.28;2099450;28;20115;-84
2024/04/09 02:02:54;;;;;;;14.95;3.80;;;;;;;14.41;100.00;92165.69;2112845;28;20479;-87
2024/04/09 02:03:58;;;;;;;16.50;3.22;;;;;;;14.68;98.03;92162.00;2112142;28;20016;-85
2024/04/09 02:04:59;;;;;;;17.45;3.33;;;;;;;14.84;84.78;92161.53;2099767;28;20104;-82
2024/04/09 02:06:00;;;;;;;13.20;3.78;;;;;;;14.96;85.52;92167.06;2115702;27;20039;-82
2024/04/09 02:07:01;;;;;;;18.67;4.80;;;;;;;15.15;68.51;92159.53;2113937;27;20028;-85
2024/04/09 02:08:02;;;;;;;18.73;3.35;;;;;;;15.51;69.36;92159.03;2099027;28;20028;-84
2024/04/09 02:09:03;;;;;;;21.30;3.35;;;;;;;15.45;62.66;92146.69;2096896;28;20063;-86
2024/04/09 02:10:05;;;;;;;12.20;2.88;;;;;;;15.66;61.69;92150.19;2119253;27;20023;-85
2024/04/09 02:11:06;;;;;;;22.35;4.05;;;;;;;15.82;61.77;92145.00;2120232;27;20030;-84
2024/04/09 02:12:10;;;;;;;18.92;3.45;;;;;;;16.08;56.64;92150.44;2107083;28;20214;-84
2024/04/09 02:13:11;;;;;;;19.63;4.03;;;;;;;16.24;57.46;92153.75;2121108;27;20403;-84
2024/04/09 02:14:12;;;;;;;15.27;3.88;;;;;;;16.22;58.48;92156.94;2114873;27;20051;-84
2024/04/09 02:15:14;;;;;;;19.92;3.60;;;;;;;16.13;56.62;92153.66;2111111;28;20031;-86
2024/04/09 02:16:16;;;;;;;16.75;3.50;;;;;;;16.10;58.27;92156.06;2101506;28;20060;-84
2024/04/09 02:17:17;;;;;;;20.15;3.20;;;;;;;16.11;56.07;92152.19;2100073;28;20405;-84
2024/04/09 02:18:18;;;;;;;20.55;3.83;;;;;;;16.77;51.62;92160.66;2121479;27;20054;-84
2024/04/09 02:19:18;;;;;;;14.90;3.95;;;;;;;16.84;53.00;92149.44;2105065;28;20111;-86
2024/04/09 02:20:19;;;;;;;23.83;3.80;;;;;;;17.05;50.25;92155.47;2111081;28;20024;-84
2024/04/09 02:21:22;;;;;;;19.25;3.03;;;;;;;17.29;49.88;92161.28;2101510;28;20028;-82
2024/04/09 02:22:24;;;;;;;18.50;3.80;;;;;;;17.40;49.67;92163.31;2089099;28;20066;-84
2024/04/09 02:23:25;;;;;;;18.65;3.72;;;;;;;17.39;49.58;92163.81;2105290;28;20024;-82
2024/04/09 02:24:26;;;;;;;21.10;3.95;;;;;;;17.47;49.70;92160.19;2093800;28;20032;-83
2024/04/09 02:25:28;;;;;;;17.13;3.70;;;;;;;17.47;48.80;92162.13;2110475;28;20477;-83
2024/04/09 02:27:41;;;;;;;;;;;;;;;16.69;51.83;92167.69;2135899;27;20118;-81
2024/04/09 02:28:43;;;;;;;21.55;4.10;;;;;;;16.83;51.28;92170.28;2117681;28;19919;-84
2024/04/09 02:29:44;;;;;;;19.33;3.92;;;;;;;16.95;52.25;92173.09;2116018;27;20027;-86
2024/04/09 02:30:45;;;;;;;20.83;3.85;;;;;;;16.80;51.84;92168.53;2114659;28;20349;-82
2024/04/09 02:31:46;;;;;;;19.50;3.58;;;;;;;16.73;51.65;92157.44;2111118;27;20027;-84
2024/04/09 02:32:47;;;;;;;23.63;3.88;;;;;;;16.69;51.23;92162.28;2116037;28;20033;-87
2024/04/09 02:33:48;;;;;;;22.25;3.83;;;;;;;16.76;51.07;92159.91;2116835;28;20026;-84
2024/04/09 02:34:49;;;;;;;19.80;3.92;;;;;;;16.59;51.18;92165.16;2109687;28;20076;-83
2024/04/09 02:35:56;;;;;;;15.73;3.70;;;;;;;17.10;48.74;92150.09;2101173;28;20024;-85
2024/04/09 02:36:57;;;;;;;20.80;3.80;;;;;;;17.30;49.03;92151.22;2106732;27;20016;-82
2024/04/09 02:37:58;;;;;;;18.90;3.42;;;;;;;17.29;47.41;92155.13;2123309;27;20015;-84
2024/04/09 02:38:59;;;;;;;17.55;3.15;;;;;;;17.36;48.29;92152.72;2113972;28;20059;-84
2024/04/09 02:40:00;;;;;;;25.08;3.90;;;;;;;17.42;47.13;92152.75;2106709;28;20110;-82
2024/04/09 02:41:06;;;;;;;16.10;3.08;;;;;;;17.26;47.10;92156.13;2106501;28;20028;-84
2024/04/09 02:42:13;;;;;;;17.65;3.72;;;;;;;17.73;46.24;92149.22;2109461;28;20074;-84
2024/04/09 02:43:14;;;;;;;17.40;3.65;;;;;;;17.77;46.22;92157.88;2119621;28;20549;-84
2024/04/09 02:44:16;;;;;;;19.75;3.38;;;;;;;17.41;47.40;92143.19;2104331;28;20473;-85
2024/04/09 02:45:20;;;;;;;21.73;3.83;;;;;;;17.43;47.72;92140.75;2119370;27;20395;-86
2024/04/09 02:46:22;;;;;;;25.15;4.28;;;;;;;17.49;46.97;92149.63;2099832;28;20366;-84
2024/04/09 02:47:24;;;;;;;24.23;4.25;;;;;;;17.35;46.93;92151.25;2102827;28;20036;-85
2024/04/09 02:48:26;;;;;;;18.17;3.25;;;;;;;17.34;47.70;92157.16;2107339;28;20032;-83
2024/04/09 02:49:27;;;;;;;14.57;3.70;;;;;;;17.17;47.85;92161.72;2094223;28;20403;-85
2024/04/09 02:50:28;;;;;;;16.73;2.97;;;;;;;17.66;45.61;92163.22;2102930;28;20118;-87
2024/04/09 02:51:30;;;;;;;15.55;3.53;;;;;;;17.58;45.85;92162.19;2103316;28;20024;-86
2024/04/09 02:52:31;;;;;;;16.95;3.78;;;;;;;17.63;45.09;92162.22;2095731;28;20025;-83
2024/04/09 02:53:35;;;;;;;15.57;3.80;;;;;;;17.90;45.42;92162.84;2087183;28;20076;-84
2024/04/09 02:54:36;;;;;;;17.08;3.63;;;;;;;17.96;43.91;92155.50;2088229;28;20036;-82
2024/04/09 02:55:37;;;;;;;21.83;3.58;;;;;;;17.95;44.58;92158.69;2102743;28;20020;-83
2024/04/09 02:56:38;;;;;;;21.83;4.28;;;;;;;18.11;43.53;92150.63;2094534;28;20024;-84
2024/04/09 02:57:39;;;;;;;15.75;3.60;;;;;;;18.08;43.41;92151.59;2112425;28;20043;-83
2024/04/09 02:58:40;;;;;;;15.25;3.40;;;;;;;18.18;43.55;92154.13;2104061;28;20408;-86
2024/04/09 02:59:41;;;;;;;14.38;3.33;;;;;;;18.18;43.82;92154.84;2110674;28;20473;-85
2024/04/09 03:00:42;;;;;;;17.48;3.30;;;;;;;18.21;43.58;92153.84;2116125;28;20547;-84
2024/04/09 03:01:43;;;;;;;17.55;3.28;;;;;;;17.85;45.10;92156.19;2108059;28;20066;-84
2024/04/09 03:02:44;;;;;;;16.55;3.33;;;;;;;17.96;44.21;92158.22;2108148;28;20097;-85
2024/04/09 03:03:45;;;;;;;17.65;2.92;;;;;;;18.02;43.23;92148.16;2114756;27;20024;-82
2024/04/09 03:04:46;;;;;;;13.80;2.95;;;;;;;18.16;43.25;92151.88;2119940;28;20102;-82
2024/04/09 03:05:47;;;;;;;18.85;3.10;;;;;;;18.01;44.76;92162.16;2096391;28;20025;-82
2024/04/09 03:06:48;;;;;;;23.42;2.90;;;;;;;18.06;43.82;92153.31;2092032;28;20033;-83
2024/04/09 03:07:52;;;;;;;15.02;2.60;;;;;;;17.91;43.48;92161.66;2108371;28;20085;-82
2024/04/09 03:08:54;;;;;;;19.67;3.13;;;;;;;18.00;44.68;92164.13;2112985;28;20030;-82
2024/04/09 03:09:55;;;;;;;12.10;3.42;;;;;;;17.78;45.21;92167.47;2113114;28;20531;-86
2024/04/09 03:10:56;;;;;;;17.08;4.43;;;;;;;17.81;44.06;92171.16;2115561;28;20030;-82
2024/04/09 03:11:57;;;;;;;15.93;3.60;;;;;;;17.96;43.49;92171.00;2125339;27;20083;-84
2024/04/09 03:12:58;;;;;;;18.40;3.45;;;;;;;17.91;44.21;92174.41;2115623;28;20063;-85
2024/04/09 03:13:59;;;;;;;20.05;3.67;;;;;;;17.98;44.04;92171.25;2089133;28;20060;-84
2024/04/09 03:15:00;;;;;;;21.65;3.55;;;;;;;17.76;43.98;92177.28;2109286;28;20036;-83
2024/04/09 03:16:01;;;;;;;17.52;2.80;;;;;;;18.17;43.04;92169.56;2104231;28;20063;-83
2024/04/09 03:17:05;;;;;;;17.30;3.58;;;;;;;18.10;43.03;92173.50;2103940;28;20027;-86
2024/04/09 03:18:07;;;;;;;23.58;2.97;;;;;;;18.09;44.55;92180.16;2102258;28;20403;-84
2024/04/09 03:19:08;;;;;;;23.70;3.28;;;;;;;18.08;43.40;92189.47;2113106;27;20606;-83
2024/04/09 03:20:12;;;;;;;19.75;3.63;;;;;;;17.89;44.15;92177.59;2110555;28;20056;-85
2024/04/09 03:21:15;;;;;;;20.55;3.35;;;;;;;17.61;46.47;92182.84;2105056;28;20117;-86
2024/04/09 03:22:16;;;;;;;23.35;3.25;;;;;;;17.67;45.98;92182.88;2105805;28;20485;-83
2024/04/09 03:23:17;;;;;;;18.35;2.58;;;;;;;17.90;43.73;92189.16;2093570;28;20043;-87
2024/04/09 03:24:18;;;;;;;19.25;3.53;;;;;;;17.94;44.18;92165.31;2099915;27;20024;-83
2024/04/09 03:25:20;;;;;;;18.30;3.40;;;;;;;17.92;43.67;92182.03;2124027;27;20099;-84
2024/04/09 03:26:23;;;;;;;16.52;2.45;;;;;;;18.01;43.42;92183.81;2126592;27;20132;-84
2024/04/09 03:27:24;;;;;;;13.75;3.38;;;;;;;18.01;43.73;92184.53;2103525;28;20056;-84
2024/04/09 03:28:25;;;;;;;14.50;2.70;;;;;;;18.11;43.91;92193.16;2098843;28;20019;-83
2024/04/09 03:29:28;;;;;;;13.98;3.53;;;;;;;18.11;44.90;92185.06;2095147;28;20046;-86
2024/04/09 03:30:29;;;;;;;16.17;3.50;;;;;;;17.85;45.11;92193.31;2100833;28;20028;-82
2024/04/09 03:31:30;;;;;;;14.60;2.95;;;;;;;17.74;45.79;92188.59;2110399;28;20546;-82
2024/04/09 03:32:31;;;;;;;16.38;3.42;;;;;;;17.69;45.92;92193.94;2104714;28;20020;-85
2024/04/09 03:33:33;;;;;;;16.40;3.38;;;;;;;17.69;44.31;92193.94;2105378;28;20069;-85
2024/04/09 03:34:34;;;;;;;16.25;3.00;;;;;;;17.72;44.45;92199.09;2103745;28;20020;-83
2024/04/09 03:35:35;;;;;;;15.85;3.15;;;;;;;17.69;45.61;92202.03;2111594;28;20110;-83
2024/04/09 03:36:35;;;;;;;15.27;2.90;;;;;;;17.66;46.14;92200.31;2120742;28;20566;-83
2024/04/09 03:37:39;;;;;;;12.80;2.90;;;;;;;17.57;45.73;92196.59;2111556;28;20019;-83
2024/04/09 03:38:40;;;;;;;10.85;2.58;;;;;;;17.62;44.74;92198.56;2100523;28;20070;-82
2024/04/09 03:39:41;;;;;;;17.38;2.95;;;;;;;17.78;44.62;92191.06;2091092;28;20035;-83
2024/04/09 03:40:51;;;;;;;17.67;2.95;;;;;;;17.80;44.75;92194.03;2095497;28;20691;-85
2024/04/09 03:41:52;;;;;;;15.82;2.80;;;;;;;17.81;45.05;92195.50;2095724;28;20086;-81
2024/04/09 03:42:53;;;;;;;16.98;2.97;;;;;;;17.77;45.00;92194.97;2097076;28;20563;-82
2024/04/09 03:43:54;;;;;;;16.30;3.17;;;;;;;17.91;44.03;92196.78;2100985;28;20727;-85
2024/04/09 03:44:55;;;;;;;14.60;2.65;;;;;;;18.00;44.40;92185.00;2098239;28;20028;-87
2024/04/09 03:46:07;;;;;;;21.20;3.33;;;;;;;17.83;44.52;92190.34;2088604;28;20111;-86
2024/04/09 03:47:08;;;;;;;;;;;;;;;17.83;45.55;92187.66;2093657;28;20033;-83
2024/04/09 03:48:09;;;;;;;13.48;2.45;;;;;;;17.86;44.96;92181.25;2100253;28;19987;-84
2024/04/09 03:49:09;;;;;;;14.20;2.70;;;;;;;17.63;44.85;92194.63;2107587;28;20044;-83
2024/04/09 03:50:10;;;;;;;12.65;2.80;;;;;;;18.06;43.88;92196.59;2097728;28;20024;-82
2024/04/09 03:51:14;;;;;;;13.05;2.75;;;;;;;17.91;44.51;92202.19;2106772;28;20024;-82
2024/04/09 03:52:14;;;;;;;13.55;2.45;;;;;;;17.94;44.73;92198.50;2103227;28;20028;-84
2024/04/09 03:53:15;;;;;;;14.25;2.97;;;;;;;17.82;44.87;92202.38;2110147;28;20439;-84
2024/04/09 03:54:16;;;;;;;11.90;2.53;;;;;;;18.02;43.88;92199.53;2091061;28;20745;-85
2024/04/09 03:55:17;;;;;;;12.93;2.70;;;;;;;17.83;44.74;92201.19;2079325;28;20025;-85
2024/04/09 03:56:18;;;;;;;18.15;3.42;;;;;;;17.97;44.52;92194.09;2094328;28;20173;-84
2024/04/09 03:57:19;;;;;;;12.80;2.80;;;;;;;18.01;45.51;92200.75;2117490;27;20106;-84
2024/04/09 03:58:20;;;;;;;16.73;3.03;;;;;;;17.74;45.16;92209.47;2107193;28;20452;-85
2024/04/09 03:59:22;;;;;;;16.50;2.30;;;;;;;17.84;44.17;92197.25;2109621;28;20024;-84
2024/04/09 04:00:23;;;;;;;17.88;2.78;;;;;;;17.76;45.28;92185.41;2101867;28;20032;-84
2024/04/09 04:01:24;;;;;;;21.17;3.10;;;;;;;17.60;45.18;92190.22;2098365;28;20349;-84
2024/04/09 04:02:25;;;;;;;17.90;3.08;;;;;;;17.79;45.51;92193.28;2091142;28;20114;-84
2024/04/09 04:03:27;;;;;;;25.13;3.30;;;;;;;17.84;45.09;92192.56;2092790;28;20036;-84
2024/04/09 04:04:27;;;;;;;11.15;2.85;;;;;;;17.96;44.56;92189.94;2105791;28;20024;-84
2024/04/09 04:05:28;;;;;;;22.33;3.05;;;;;;;18.21;44.63;92196.41;2102856;28;20508;-84
2024/04/09 04:06:29;;;;;;;19.58;3.10;;;;;;;18.17;44.12;92191.22;2106413;28;20521;-84
2024/04/09 04:07:30;;;;;;;19.13;3.25;;;;;;;18.19;44.57;92196.91;2107622;28;20110;-82
2024/04/09 04:08:33;;;;;;;23.20;2.95;;;;;;;18.17;44.33;92193.19;2089062;28;20033;-84
2024/04/09 04:09:34;;;;;;;14.73;2.90;;;;;;;18.01;44.71;92208.88;2090365;28;20051;-81
2024/04/09 04:10:36;;;;;;;14.63;2.53;;;;;;;18.03;45.01;92214.53;2110650;27;20028;-85
2024/04/09 04:11:38;;;;;;;16.25;3.08;;;;;;;17.66;45.62;92211.13;2098024;28;20065;-82
2024/04/09 04:12:39;;;;;;;17.75;3.25;;;;;;;17.71;45.12;92205.75;2097538;28;20074;-86
2024/04/09 04:13:41;;;;;;;11.52;2.90;;;;;;;17.83;44.61;92209.28;2105463;28;20016;-86
2024/04/09 04:14:44;;;;;;;18.65;3.20;;;;;;;17.79;45.68;92216.88;2112668;28;20103;-85
2024/04/09 04:15:45;;;;;;;17.15;2.92;;;;;;;17.62;46.62;92214.78;2114011;28;20020;-83
2024/04/09 04:16:46;;;;;;;16.92;3.25;;;;;;;17.54;45.96;92216.44;2121320;27;20023;-83
2024/04/09 04:17:47;;;;;;;17.05;2.92;;;;;;;17.83;45.13;92217.41;2099364;28;20031;-84
2024/04/09 04:18:49;;;;;;;12.63;2.92;;;;;;;17.75;45.77;92211.69;2098712;28;20576;-86
2024/04/09 04:19:50;;;;;;;17.40;3.08;;;;;;;17.62;45.54;92225.59;2107864;28;20027;-83
2024/04/09 04:20:54;;;;;;;17.65;2.70;;;;;;;17.81;45.54;92212.44;2100473;28;20143;-85
2024/04/09 04:21:56;;;;;;;18.42;2.88;;;;;;;17.96;45.62;92208.84;2089421;28;20056;-82
2024/04/09 04:22:57;;;;;;;13.77;3.42;;;;;;;17.75;46.12;92198.19;2089905;28;20056;-85
2024/04/09 04:23:58;;;;;;;14.43;2.78;;;;;;;17.58;46.63;92205.44;2101133;28;20132;-84
2024/04/09 04:24:59;;;;;;;16.17;3.08;;;;;;;17.55;47.00;92209.09;2106159;28;20024;-82
2024/04/09 04:26:04;;;;;;;16.15;2.67;;;;;;;17.60;46.40;92201.03;2109462;28;20176;-84
2024/04/09 04:27:05;;;;;;;14.23;2.47;;;;;;;17.70;46.31;92203.53;2087366;28;20049;-86
2024/04/09 04:28:06;;;;;;;21.45;3.33;;;;;;;17.58;46.16;92208.13;2100044;28;20166;-83
2024/04/09 04:29:10;;;;;;;12.43;2.35;;;;;;;17.59;46.24;92210.34;2092196;28;20028;-87
2024/04/09 04:30:11;;;;;;;17.02;3.20;;;;;;;17.54;46.88;92211.03;2096308;28;20477;-85
2024/04/09 04:31:23;;;;;;;22.13;3.00;;;;;;;17.39;47.50;92207.78;2114606;27;20471;-84
2024/04/09 04:32:27;;;;;;;15.95;2.80;;;;;;;17.44;46.80;92209.75;2109045;28;20062;-85
2024/04/09 04:33:28;;;;;;;12.90;2.78;;;;;;;17.42;47.46;92204.09;2102771;28;20059;-87
2024/04/09 04:34:29;;;;;;;15.52;2.13;;;;;;;17.39;47.13;92212.44;2105711;28;20445;-85
2024/04/09 04:35:30;;;;;;;20.65;3.30;;;;;;;17.42;47.44;92211.47;2094110;28;20370;-83
2024/04/09 04:36:31;;;;;;;14.32;2.90;;;;;;;17.53;47.47;92217.69;2097634;28;20531;-82
2024/04/09 04:37:37;;;;;;;17.00;2.92;;;;;;;17.54;47.43;92213.00;2103664;27;20090;-85
2024/04/09 04:38:38;;;;;;;18.25;3.20;;;;;;;17.45;47.42;92224.75;2109203;28;20019;-83
2024/04/09 04:39:39;;;;;;;21.65;3.45;;;;;;;17.30;48.69;92224.16;2089379;28;20087;-88
2024/04/09 04:40:40;;;;;;;14.18;2.90;;;;;;;17.39;48.49;92217.84;2088876;28;20112;-83
2024/04/09 04:41:46;;;;;;;14.23;2.63;;;;;;;17.35;48.41;92224.19;2106731;28;20043;-83
2024/04/09 04:42:48;;;;;;;18.75;4.22;;;;;;;17.29;49.42;92222.66;2107615;28;20027;-82
2024/04/09 04:43:50;;;;;;;12.10;2.58;;;;;;;17.24;49.00;92228.78;2108058;28;20031;-82
2024/04/09 04:44:51;;;;;;;17.80;2.78;;;;;;;17.43;48.03;92229.13;2114053;28;20384;-86
2024/04/09 04:45:52;;;;;;;18.27;3.35;;;;;;;17.55;48.18;92222.59;2102540;28;20024;-83
2024/04/09 04:46:53;;;;;;;14.73;3.25;;;;;;;17.32;48.45;92227.84;2105624;28;20539;-86
2024/04/09 04:47:54;;;;;;;21.02;3.35;;;;;;;17.41;48.56;92224.22;2113546;28;20031;-86
2024/04/09 04:48:55;;;;;;;15.48;3.30;;;;;;;17.55;48.87;92226.03;2102962;28;20031;-84